KTPF/TPF METAR and TAF weather

Enter ICAO airport designator
Station Type Date Time Source
KTPF METAR 2020/07/10 19:15 UTC NOAA

KTPF 101915Z AUTO 29007G15KT 10SM SCT033 SCT043 BKN110 33/28 A2995 RMK AO2


Station Type Date Time Source
KTPF Decoded METAR 2020/07/10 19:15 UTC NOAA

Tampa, Peter O Knight Airport, FL, United States (KTPF) 27-54-56N 082-26-57W
Jul 10, 2020 - 03:15 PM EDT / 2020.07.10 1915 UTC
Wind: from the WNW (290 degrees) at 8 MPH (7 KT) gusting to 17 MPH (15 KT):0
Visibility: 10 mile(s):0
Sky conditions: mostly cloudy
Temperature: 91 F (33 C)
Heat index: 112.8 F (44.9 C):1
Dew Point: 82 F (28 C)
Relative Humidity: 75%
Pressure (altimeter): 29.95 in. Hg (1014 hPa)
ob: KTPF 101915Z AUTO 29007G15KT 10SM SCT033 SCT043 BKN110 33/28 A2995 RMK AO2
cycle: 19

Station Type Date Time Source
KTPF TAF UTC NOAA

Error!

Example: see airport list